Flight Track Log - Related Links

Times and Time Zones

All times are in EDT time to prevent confusion due to time zone crossing. See the RPA3457 flight status page for this flight to view local times or setup timezone preferences in your user account.

Time Position Orientation Groundspeed Altitude Reporting Facility
EDT Latitude Longitude Course Direction KTS MPH feet Rate Location/Type
Wed 07:55:28 AM 44.3819 -73.1517 195° South 223 257 4,200  Level Boston Center
Wed 07:56:00 AM 44.1650 -73.2632 195° South  Level FlightAware Approximate
Wed 07:56:28 AM 44.3214 -73.1800 199° South 247 284 6,800  Level Boston Center
Wed 07:57:00 AM 44.0638 -73.3009 194° South  Level FlightAware Approximate
Wed 07:57:28 AM 44.2525 -73.2081 196° South 265 305 9,700  Level Boston Center
Wed 07:58:00 AM 43.9620 -73.3349 194° South  Level FlightAware Approximate
Wed 07:58:28 AM 44.1711 -73.2419 197° South 283 326 11,900  Level Boston Center
Wed 07:59:00 AM 43.8606 -73.3711 195° South  Level FlightAware Approximate
Wed 07:59:28 AM 44.0853 -73.2783 197° South 314 361 15,000  Level Boston Center
Wed 08:00:00 AM 43.7595 -73.4090 195° South  Level FlightAware Approximate
Wed 08:00:28 AM 44.0058 -73.3089 195° South 332 382 17,900  Level Boston Center
Wed 08:01:28 AM 43.9161 -73.3450 196° South 337 388 20,200 1,900 Climbing Boston Center
Wed 08:02:28 AM 43.8303 -73.3783 196° South 352 405 21,700 2,000 Climbing Boston Center
Wed 08:03:28 AM 43.7175 -73.4225 196° South 370 426 24,200 2,100 Climbing Boston Center
Wed 08:04:28 AM 43.6044 -73.4667 196° South 382 440 25,900 1,650 Climbing Boston Center
Wed 08:05:28 AM 43.4978 -73.5078 196° South 389 448 27,500 1,050 Climbing Boston Center
Wed 08:06:28 AM 43.3828 -73.5542 196° South 401 461 28,000 250 Climbing Boston Center
Wed 08:07:28 AM 43.2678 -73.6006 196° South 422 486 28,000 500 Level Boston Center
Wed 08:08:28 AM 43.1483 -73.6467 196° South 441 507 29,000 1,000 Climbing Boston Center
Wed 08:09:28 AM 43.0394 -73.6928 197° South 441 507 30,000 500 Climbing Boston Center
Wed 08:10:28 AM 42.9203 -73.7386 196° South 446 513 30,000  Level Boston Center
Wed 08:11:28 AM 42.7989 -73.7842 195° South 446 513 30,000  Level Boston Center
Wed 08:12:28 AM 42.6736 -73.7956 184° South 446 513 30,000  Level Boston Center
Wed 08:13:28 AM 42.5342 -73.7756 174° South 453 521 30,000  Level Boston Center
Wed 08:14:28 AM 42.4011 -73.7558 174° South 471 542 30,000  Level Boston Center
Wed 08:15:28 AM 42.2700 -73.7364 174° South 476 548 30,000  Level Boston Center
Wed 08:16:28 AM 42.1369 -73.7139 173° South 481 554 30,000  Level Boston Center
Wed 08:17:28 AM 42.0058 -73.6944 174° South 481 554 30,000  Level Boston Center
Wed 08:18:28 AM 41.8747 -73.6753 174° South 481 554 30,000  Level Boston Center
Wed 08:19:28 AM 41.7417 -73.6531 173° South 481 554 30,000  Level Boston Center
Wed 08:20:28 AM 41.6064 -73.6339 174° South 481 554 30,000  Level Boston Center
Wed 08:23:27 AM 41.2517 -73.6467 182° South 440 506 30,000 -126 Level New York Center
Wed 08:24:27 AM 41.1758 -73.7619 229° Southwest 401 461 29,500 -984 Descending New York Center
Wed 08:25:29 AM 41.1061 -73.8800 232° Southwest 394 453 28,000 -744 Descending New York Center
Wed 08:26:28 AM 41.0361 -74.0006 232° Southwest 413 475 28,000  Level New York Center
Wed 08:27:28 AM 40.9664 -74.1181 232° Southwest 418 481 28,000  Level New York Center
Wed 08:28:28 AM 40.8922 -74.2325 229° Southwest 418 481 28,000  Level New York Center
Wed 08:29:29 AM 40.8219 -74.3494 232° Southwest 418 481 28,000  Level New York Center
Wed 08:30:28 AM 40.7517 -74.4636 231° Southwest 413 475 28,000 -101 Level New York Center
Wed 08:31:28 AM 40.6856 -74.5833 234° Southwest 413 475 27,800 -793 Descending New York Center
Wed 08:32:29 AM 40.6397 -74.7119 245° Southwest 395 455 26,400 -1,400 Descending New York Center
Wed 08:33:28 AM 40.5933 -74.8431 245° Southwest 395 455 25,000 -1,361 Descending New York Center
Wed 08:34:28 AM 40.5536 -74.9719 248° West 395 455 23,700 -1,339 Descending New York Center
Wed 08:35:29 AM 40.5033 -75.0944 242° Southwest 390 449 22,300 -857 Descending New York Center
Wed 08:36:27 AM 40.4472 -75.2028 236° Southwest 371 427 22,000 -153 Descending New York Center
Wed 08:37:27 AM 40.3953 -75.3083 237° Southwest 364 419 22,000  Level New York Center
Wed 08:38:28 AM 40.3408 -75.4164 237° Southwest 358 412 22,000  Level New York Center
Wed 08:39:27 AM 40.2789 -75.5103 229° Southwest 353 406 22,000  Level New York Center
Wed 08:40:28 AM 40.1833 -75.5553 200° South 343 395 22,000  Level New York Center
Wed 08:41:29 AM 40.0875 -75.6003 200° South 351 404 22,000  Level New York Center
Wed 08:42:27 AM 39.9919 -75.6425 199° South 356 410 22,000 -203 Level New York Center
Wed 08:43:27 AM 39.8994 -75.7144 211° Southwest 363 418 21,600 -800 Descending New York Center
Wed 08:44:27 AM 39.8494 -75.8083 235° Southwest 336 387 20,400 -1,180 Descending New York Center
Wed 08:45:29 AM 39.7997 -75.9022 235° Southwest 329 379 19,200 -1,200 Descending New York Center
Wed 08:46:27 AM 39.7519 -75.9903 235° Southwest 310 357 18,000 -1,119 Descending New York Center
Wed 08:47:27 AM 39.7064 -76.0789 236° Southwest 301 346 17,000 -1,082 Descending New York Center
Wed 08:48:29 AM 39.6872 -76.1772 256° West 290 334 15,800 -1,261 Descending New York Center
Wed 08:50:04 AM 39.6333 -76.3167 243° Southwest 290 334 13,700 -1,277 Descending Potomac TRACON
Wed 08:51:04 AM 39.5667 -76.3667 210° Southwest 292 336 12,500 -895 Descending Potomac TRACON
Wed 08:51:58 AM 39.5000 -76.4000 201° Southwest 284 327 12,000 -263 Descending Potomac TRACON
Wed 08:52:58 AM 39.4167 -76.4500 205° Southwest 270 311 12,000 -100 Level Potomac TRACON
Wed 08:53:58 AM 39.3667 -76.4833 207° Southwest 230 265 11,800 -500 Descending Potomac TRACON
Wed 08:54:58 AM 39.3167 -76.5333 218° Southwest 227 261 11,000 -789 Descending Potomac TRACON
Wed 08:55:52 AM 39.2667 -76.5667 207° Southwest 225 259 10,300 -550 Descending Potomac TRACON
Wed 08:56:47 AM 39.2167 -76.6167 218° Southwest 228 262 10,000 -149 Descending Potomac TRACON
Wed 08:57:53 AM 39.1667 -76.6667 218° Southwest 226 260 10,000  Level Potomac TRACON
Wed 08:58:53 AM 39.1167 -76.7167 218° Southwest 223 257 10,000 -53 Level Potomac TRACON
Wed 08:59:47 AM 39.0833 -76.7667 229° Southwest 222 255 9,900 -730 Descending Potomac TRACON
Wed 09:00:48 AM 39.0333 -76.8167 218° Southwest 221 254 8,600 -939 Descending Potomac TRACON
Wed 09:01:42 AM 39.0000 -76.8667 229° Southwest 177 204 8,100 -895 Descending Potomac TRACON
Wed 09:02:42 AM 38.9667 -76.9167 229° Southwest 176 203 6,900 -1,050 Descending Potomac TRACON
Wed 09:03:42 AM 38.9667 -76.9667 270° West 167 192 6,000 -450 Descending Potomac TRACON
Wed 09:04:42 AM 38.9833 -77.0333 288° West 171 197 6,000 -313 Level Potomac TRACON
Wed 09:05:37 AM 39.0167 -77.0667 322° Northwest 172 198 5,400 -522 Descending Potomac TRACON
Wed 09:06:37 AM 39.0500 -77.1167 311° West 172 198 5,000 -313 Descending Potomac TRACON
Wed 09:07:32 AM 39.0667 -77.1500 303° West 173 199 4,800 -574 Descending Potomac TRACON
Wed 09:08:32 AM 39.0500 -77.2000 247° West 158 182 3,900 -900 Descending Potomac TRACON
Wed 09:09:32 AM 39.0000 -77.2000 180° South 184 212 3,000 -545 Descending Potomac TRACON
Wed 09:10:33 AM 38.9667 -77.1667 142° Southeast 184 212 2,800 -197 Descending Potomac TRACON

Login

Don't have an account? Register now (free) for customized features, flight alerts, and more!